createdAt,value
2019-03-05T00:03:08.723Z,62.45
2019-03-05T00:09:22.846Z,62.33
2019-03-05T00:15:28.633Z,61.98
2019-03-05T00:21:35.384Z,61.76
2019-03-05T00:28:03.379Z,61.80
2019-03-05T00:35:01.158Z,61.62
2019-03-05T00:41:25.601Z,61.57
2019-03-05T00:48:11.449Z,61.69
2019-03-05T00:54:49.849Z,61.59
2019-03-05T01:01:50.916Z,61.83
2019-03-05T01:07:57.240Z,62.06
2019-03-05T01:14:03.110Z,62.01
2019-03-05T01:20:09.672Z,61.81
2019-03-05T01:26:15.689Z,61.77
2019-03-05T01:32:42.862Z,61.77
2019-03-05T01:39:04.475Z,61.31
2019-03-05T01:45:12.568Z,60.84
2019-03-05T01:51:18.351Z,60.07
2019-03-05T01:57:24.202Z,59.23
2019-03-05T02:03:29.966Z,59.70
2019-03-05T02:09:35.776Z,59.81
2019-03-05T02:15:41.700Z,60.07
2019-03-05T02:21:47.594Z,59.42
2019-03-05T02:28:38.764Z,59.47
2019-03-05T02:35:55.314Z,59.41
2019-03-05T02:42:49.991Z,59.93
2019-03-05T02:50:03.188Z,60.47
2019-03-05T02:57:10.132Z,60.74
2019-03-05T03:03:34.808Z,61.14
2019-03-05T03:10:18.855Z,61.60
2019-03-05T03:16:24.773Z,61.57
2019-03-05T03:22:30.518Z,61.58
2019-03-05T03:28:36.271Z,61.54
2019-03-05T03:34:42.390Z,61.93
2019-03-05T03:40:48.302Z,62.05
2019-03-05T03:46:54.323Z,61.99
2019-03-05T03:53:00.105Z,61.87
2019-03-05T03:59:07.934Z,61.93
2019-03-05T04:05:13.773Z,61.97
2019-03-05T04:11:19.690Z,62.02
2019-03-05T04:17:25.626Z,61.88
2019-03-05T04:23:31.844Z,62.00
2019-03-05T04:29:37.628Z,61.92
2019-03-05T04:35:43.610Z,61.87
2019-03-05T04:41:50.774Z,61.99
2019-03-05T04:47:56.684Z,61.99
2019-03-05T04:54:02.817Z,62.02
2019-03-05T05:00:14.096Z,62.12
2019-03-05T05:06:20.383Z,62.17
2019-03-05T05:12:26.645Z,62.08
2019-03-05T05:18:32.627Z,62.06
2019-03-05T05:24:38.372Z,62.08
2019-03-05T05:30:44.412Z,62.01
2019-03-05T05:36:50.388Z,61.90
2019-03-05T05:42:56.280Z,61.85
2019-03-05T05:49:02.005Z,61.78
2019-03-05T05:55:08.414Z,61.43
2019-03-05T06:01:14.164Z,61.32
2019-03-05T06:07:20.007Z,61.22
2019-03-05T06:13:25.763Z,61.27
2019-03-05T06:19:31.537Z,61.43
2019-03-05T06:25:37.540Z,61.73
2019-03-05T06:31:43.720Z,61.88
2019-03-05T06:37:49.944Z,62.22
2019-03-05T06:43:55.787Z,62.51
2019-03-05T06:50:02.100Z,62.91
2019-03-05T06:56:08.046Z,63.14
2019-03-05T07:02:13.753Z,63.35
2019-03-05T07:08:19.558Z,63.40
2019-03-05T07:14:37.142Z,63.17
2019-03-05T07:21:51.211Z,63.23
2019-03-05T07:27:59.794Z,63.35
2019-03-05T07:34:07.782Z,64.14
2019-03-05T07:40:33.934Z,64.70
2019-03-05T07:46:39.932Z,65.35
2019-03-05T07:52:45.979Z,65.68
2019-03-05T07:58:51.894Z,66.23
2019-03-05T08:04:58.778Z,67.87
2019-03-05T08:11:04.958Z,67.07
2019-03-05T08:17:10.748Z,66.60
2019-03-05T08:23:16.579Z,67.33
2019-03-05T08:29:22.721Z,67.31
2019-03-05T08:35:28.690Z,68.47
2019-03-05T08:41:34.802Z,67.17
2019-03-05T08:47:40.690Z,67.17
2019-03-05T08:53:49.797Z,67.07
2019-03-05T08:59:54.115Z,66.85
2019-03-05T09:06:00.110Z,66.70
2019-03-05T09:12:06.679Z,66.24
2019-03-05T09:18:12.473Z,65.59
2019-03-05T09:24:18.230Z,64.40
2019-03-05T09:30:23.947Z,64.32
2019-03-05T09:36:29.760Z,63.79
2019-03-05T09:42:39.945Z,63.22
2019-03-05T09:48:43.038Z,63.09
2019-03-05T09:54:49.002Z,62.76
2019-03-05T10:00:54.891Z,62.25
2019-03-05T10:07:00.720Z,61.73
2019-03-05T10:13:06.719Z,61.59
2019-03-05T10:19:12.585Z,61.00
2019-03-05T10:25:20.222Z,60.87
2019-03-05T10:31:25.963Z,60.40
2019-03-05T10:37:31.733Z,60.27
2019-03-05T10:43:37.528Z,59.83
2019-03-05T10:49:43.289Z,59.55
2019-03-05T10:55:49.293Z,58.56
2019-03-05T11:01:55.591Z,56.96
2019-03-05T11:08:01.453Z,55.09
2019-03-05T11:14:07.310Z,54.47
2019-03-05T11:20:13.546Z,54.95
2019-03-05T11:26:19.287Z,55.71
2019-03-05T11:32:25.134Z,54.70
2019-03-05T11:38:32.873Z,54.09
2019-03-05T11:44:38.613Z,53.20
2019-03-05T11:50:44.668Z,53.33
2019-03-05T11:56:50.578Z,53.45
2019-03-05T12:02:56.512Z,53.16
2019-03-05T12:09:02.392Z,52.35
2019-03-05T12:15:12.173Z,52.91
2019-03-05T12:21:17.938Z,52.51
2019-03-05T12:27:23.771Z,52.01
2019-03-05T12:33:29.994Z,52.00
2019-03-05T12:39:35.806Z,53.16
2019-03-05T12:45:41.610Z,53.64
2019-03-05T12:51:47.416Z,54.53
2019-03-05T12:57:53.446Z,54.64
2019-03-05T13:03:59.215Z,54.42
2019-03-05T13:10:05.266Z,53.92
2019-03-05T13:16:13.777Z,53.38
2019-03-05T13:22:18.838Z,51.91
2019-03-05T13:28:24.624Z,50.96
2019-03-05T13:34:30.660Z,51.05
2019-03-05T13:40:38.407Z,51.75
2019-03-05T13:46:45.151Z,50.72
2019-03-05T13:53:36.397Z,46.68
2019-03-05T13:59:49.863Z,45.89
2019-03-05T14:06:48.135Z,45.85
2019-03-05T14:12:54.136Z,44.74
2019-03-05T14:18:59.966Z,44.87
2019-03-05T14:25:07.296Z,45.24
2019-03-05T14:31:13.082Z,45.80
2019-03-05T14:37:18.977Z,45.44
2019-03-05T14:43:24.735Z,45.79
2019-03-05T14:49:30.443Z,45.14
2019-03-05T14:55:36.236Z,44.84
2019-03-05T15:01:42.057Z,44.74
2019-03-05T15:07:47.773Z,44.21
2019-03-05T15:13:53.726Z,43.34
2019-03-05T15:19:59.506Z,43.92
2019-03-05T15:26:05.390Z,44.14
2019-03-05T15:32:11.240Z,44.09
2019-03-05T15:38:17.075Z,44.02
2019-03-05T15:44:22.814Z,45.14
2019-03-05T15:50:28.695Z,45.97
2019-03-05T15:56:34.543Z,46.60
2019-03-05T16:02:40.639Z,47.00
2019-03-05T16:08:46.404Z,47.36
2019-03-05T16:14:52.130Z,47.52
2019-03-05T16:21:01.893Z,47.69
2019-03-05T16:27:05.412Z,47.62
2019-03-05T16:33:36.796Z,47.86
2019-03-05T16:40:01.133Z,47.86
2019-03-05T16:46:34.768Z,47.91
2019-03-05T16:52:59.506Z,47.97
2019-03-05T16:59:24.951Z,47.94
2019-03-05T17:05:52.424Z,48.22
2019-03-05T17:11:58.326Z,48.43
2019-03-05T17:18:04.107Z,48.59
2019-03-05T17:24:10.488Z,48.86
2019-03-05T17:30:17.250Z,49.25
2019-03-05T17:36:23.225Z,49.62
2019-03-05T17:42:29.847Z,49.86
2019-03-05T17:48:35.781Z,50.23
2019-03-05T17:54:41.563Z,50.54
2019-03-05T18:00:48.885Z,50.90
2019-03-05T18:06:54.605Z,51.27
2019-03-05T18:13:00.350Z,51.76
2019-03-05T18:19:06.273Z,52.27
2019-03-05T18:25:12.581Z,52.69
2019-03-05T18:31:18.299Z,52.89
2019-03-05T18:37:24.214Z,53.03
2019-03-05T18:43:29.999Z,53.23
2019-03-05T18:49:35.727Z,53.46
2019-03-05T18:55:41.989Z,53.99
2019-03-05T19:01:47.839Z,54.38
2019-03-05T19:07:53.723Z,54.80
2019-03-05T19:13:59.454Z,55.12
2019-03-05T19:20:06.620Z,55.58
2019-03-05T19:26:14.734Z,55.96
2019-03-05T19:32:20.512Z,56.29
2019-03-05T19:38:26.229Z,56.57
2019-03-05T19:44:32.174Z,56.87
2019-03-05T19:50:38.227Z,57.33
2019-03-05T19:56:44.291Z,57.64
2019-03-05T20:02:50.022Z,57.83
2019-03-05T20:08:56.362Z,58.02
2019-03-05T20:15:02.219Z,58.11
2019-03-05T20:21:09.931Z,58.30
2019-03-05T20:27:16.467Z,58.96
2019-03-05T20:33:22.509Z,59.24
2019-03-05T20:39:28.423Z,59.53
2019-03-05T20:45:39.774Z,59.86
2019-03-05T20:51:45.527Z,59.85
2019-03-05T20:57:51.504Z,59.70
2019-03-05T21:03:57.787Z,59.62
2019-03-05T21:10:03.979Z,59.68
2019-03-05T21:16:10.035Z,60.11
2019-03-05T21:22:16.100Z,60.17
2019-03-05T21:28:21.958Z,60.15
2019-03-05T21:34:28.116Z,60.44
2019-03-05T21:40:34.009Z,60.50
2019-03-05T21:46:40.795Z,60.66
2019-03-05T21:52:48.566Z,60.85
2019-03-05T21:58:54.535Z,60.96
2019-03-05T22:05:01.418Z,61.10
2019-03-05T22:11:07.934Z,61.13
2019-03-05T22:17:14.031Z,61.36
2019-03-05T22:23:20.054Z,61.43
2019-03-05T22:29:25.822Z,61.51
2019-03-05T22:35:31.627Z,61.59
2019-03-05T22:41:38.380Z,61.53
2019-03-05T22:47:44.350Z,61.43
2019-03-05T22:53:50.295Z,61.34
2019-03-05T22:59:56.210Z,61.29
2019-03-05T23:06:03.811Z,61.29
2019-03-05T23:12:09.907Z,61.21
2019-03-05T23:18:15.605Z,61.25
2019-03-05T23:24:21.966Z,61.49
2019-03-05T23:30:28.114Z,61.50
2019-03-05T23:36:34.230Z,61.91
2019-03-05T23:42:40.306Z,61.96
2019-03-05T23:48:59.792Z,61.98
2019-03-05T23:55:06.190Z,62.02
